createdAt,value
2023-04-05T00:01:13.790Z,8.33
2023-04-05T00:03:42.675Z,7.87
2023-04-05T00:06:13.142Z,7.97
2023-04-05T00:08:41.866Z,5.20
2023-04-05T00:11:09.947Z,6.23
2023-04-05T00:13:38.390Z,9.93
2023-04-05T00:16:08.675Z,8.40
2023-04-05T00:18:38.701Z,6.93
2023-04-05T00:21:07.546Z,9.10
2023-04-05T00:23:38.614Z,8.57
2023-04-05T00:26:07.032Z,8.10
2023-04-05T00:28:36.363Z,8.43
2023-04-05T00:31:05.460Z,8.60
2023-04-05T00:33:34.977Z,10.43
2023-04-05T00:36:13.406Z,7.70
2023-04-05T00:38:42.962Z,15.43
2023-04-05T00:41:11.553Z,13.03
2023-04-05T00:43:39.797Z,11.83
2023-04-05T00:46:08.648Z,8.93
2023-04-05T00:48:39.771Z,10.00
2023-04-05T00:51:11.535Z,7.37
2023-04-05T00:53:40.848Z,7.70
2023-04-05T00:56:10.248Z,8.33
2023-04-05T00:58:41.391Z,9.43
2023-04-05T01:01:14.652Z,11.43
2023-04-05T01:03:53.744Z,7.47
2023-04-05T01:06:30.176Z,9.80
2023-04-05T01:09:04.840Z,8.20
2023-04-05T01:11:34.637Z,7.63
2023-04-05T01:14:03.545Z,6.43
2023-04-05T01:16:31.686Z,13.30
2023-04-05T01:19:01.224Z,6.50
2023-04-05T01:22:17.421Z,9.30
2023-04-05T01:25:23.694Z,5.80
2023-04-05T01:28:13.112Z,12.20
2023-04-05T01:30:45.405Z,16.00
2023-04-05T01:33:19.277Z,19.13
2023-04-05T01:35:53.647Z,12.10
2023-04-05T01:38:26.219Z,6.83
2023-04-05T01:40:55.162Z,9.10
2023-04-05T01:43:23.228Z,10.93
2023-04-05T01:45:52.676Z,9.60
2023-04-05T01:48:21.156Z,10.10
2023-04-05T01:50:49.327Z,11.93
2023-04-05T01:53:17.424Z,5.80
2023-04-05T01:55:46.192Z,6.73
2023-04-05T01:58:14.584Z,9.10
2023-04-05T02:00:43.214Z,6.80
2023-04-05T02:03:13.742Z,5.80
2023-04-05T02:05:43.201Z,5.90
2023-04-05T02:08:11.719Z,4.43
2023-04-05T02:10:40.177Z,11.53
2023-04-05T02:13:08.536Z,7.07
2023-04-05T02:15:36.751Z,6.63
2023-04-05T02:18:05.115Z,4.50
2023-04-05T02:20:34.957Z,8.13
2023-04-05T02:23:03.304Z,6.30
2023-04-05T02:25:31.371Z,5.50
2023-04-05T02:27:59.569Z,5.63
2023-04-05T02:30:28.998Z,6.13
2023-04-05T02:32:57.284Z,6.63
2023-04-05T02:35:25.566Z,5.67
2023-04-05T02:37:56.795Z,9.13
2023-04-05T02:40:25.351Z,9.00
2023-04-05T02:42:53.547Z,5.20
2023-04-05T02:45:21.615Z,6.63
2023-04-05T02:47:50.830Z,5.97
2023-04-05T02:50:20.632Z,5.57
2023-04-05T02:52:49.222Z,4.60
2023-04-05T02:55:19.685Z,4.07
2023-04-05T02:57:47.789Z,4.33
2023-04-05T03:00:29.173Z,4.50
2023-04-05T03:03:00.241Z,4.00
2023-04-05T03:05:28.863Z,4.03
2023-04-05T03:07:59.480Z,6.13
2023-04-05T03:10:35.008Z,5.87
2023-04-05T03:13:11.700Z,4.50
2023-04-05T03:15:40.071Z,7.30
2023-04-05T03:18:13.185Z,5.20
2023-04-05T03:20:43.483Z,7.57
2023-04-05T03:23:18.619Z,7.03
2023-04-05T03:25:50.601Z,7.80
2023-04-05T03:28:20.133Z,7.77
2023-04-05T03:30:53.085Z,6.13
2023-04-05T03:33:22.531Z,5.60
2023-04-05T03:35:52.523Z,5.60
2023-04-05T03:38:21.568Z,5.13
2023-04-05T03:41:11.153Z,4.97
2023-04-05T03:43:39.244Z,3.30
2023-04-05T03:46:07.630Z,4.50
2023-04-05T03:48:35.804Z,5.20
2023-04-05T03:51:04.235Z,4.10
2023-04-05T03:53:32.753Z,7.03
2023-04-05T03:56:01.560Z,4.73
2023-04-05T03:58:43.785Z,6.43
2023-04-05T04:01:13.837Z,6.10
2023-04-05T04:03:42.118Z,5.43
2023-04-05T04:06:11.414Z,7.53
2023-04-05T04:08:40.142Z,6.73
2023-04-05T04:11:09.353Z,3.47
2023-04-05T04:13:40.341Z,8.93
2023-04-05T04:16:16.086Z,5.73
2023-04-05T04:18:48.231Z,5.87
2023-04-05T04:21:35.878Z,13.13
2023-04-05T04:24:32.855Z,4.70
2023-04-05T04:27:30.466Z,4.67
2023-04-05T04:30:15.988Z,6.83
2023-04-05T04:32:55.009Z,5.10
2023-04-05T04:35:42.558Z,3.87
2023-04-05T04:38:34.850Z,5.67
2023-04-05T04:41:36.108Z,9.10
2023-04-05T04:44:31.361Z,5.83
2023-04-05T04:47:21.591Z,5.90
2023-04-05T04:50:08.803Z,5.57
2023-04-05T04:52:36.966Z,4.90
2023-04-05T04:55:05.722Z,4.67
2023-04-05T04:57:33.813Z,5.50
2023-04-05T05:00:02.066Z,4.90
2023-04-05T05:02:31.379Z,3.33
2023-04-05T05:04:59.673Z,5.30
2023-04-05T05:07:29.773Z,6.93
2023-04-05T05:09:57.955Z,5.37
2023-04-05T05:12:26.813Z,9.67
2023-04-05T05:14:55.089Z,12.83
2023-04-05T05:17:25.523Z,16.10
2023-04-05T05:19:55.251Z,12.80
2023-04-05T05:22:24.535Z,12.37
2023-04-05T05:24:54.300Z,13.83
2023-04-05T05:27:22.924Z,11.70
2023-04-05T05:29:50.996Z,8.70
2023-04-05T05:32:19.173Z,10.40
2023-04-05T05:34:48.636Z,8.80
2023-04-05T05:37:17.268Z,15.60
2023-04-05T05:39:45.889Z,19.77
2023-04-05T05:42:15.347Z,13.37
2023-04-05T05:44:43.416Z,8.57
2023-04-05T05:47:11.557Z,7.43
2023-04-05T05:49:39.918Z,6.60
2023-04-05T05:52:08.064Z,6.97
2023-04-05T05:54:36.164Z,9.20
2023-04-05T05:57:04.547Z,7.33
2023-04-05T05:59:34.159Z,5.13
2023-04-05T06:02:02.280Z,6.07
2023-04-05T06:04:30.508Z,7.67
2023-04-05T06:06:59.122Z,5.50
2023-04-05T06:09:27.240Z,13.50
2023-04-05T06:11:57.143Z,11.53
2023-04-05T06:14:25.997Z,4.17
2023-04-05T06:16:55.819Z,5.13
2023-04-05T06:19:24.134Z,9.87
2023-04-05T06:21:52.297Z,8.80
2023-04-05T06:24:21.005Z,7.60
2023-04-05T06:26:49.131Z,9.70
2023-04-05T06:29:17.261Z,8.83
2023-04-05T06:31:46.605Z,10.83
2023-04-05T06:34:16.223Z,11.20
2023-04-05T06:36:44.279Z,10.90
2023-04-05T06:39:12.667Z,11.00
2023-04-05T06:41:40.811Z,8.87
2023-04-05T06:44:08.993Z,10.53
2023-04-05T06:46:37.171Z,16.50
2023-04-05T06:49:05.498Z,14.07
2023-04-05T06:51:35.070Z,16.67
2023-04-05T06:54:03.269Z,13.60
2023-04-05T06:56:32.005Z,15.17
2023-04-05T06:59:02.260Z,12.70
2023-04-05T07:01:30.909Z,14.20
2023-04-05T07:03:59.022Z,14.77
2023-04-05T07:06:27.306Z,18.50
2023-04-05T07:08:56.890Z,16.27
2023-04-05T07:11:25.018Z,19.63
2023-04-05T07:13:53.147Z,14.00
2023-04-05T07:16:23.634Z,12.67
2023-04-05T07:18:52.270Z,15.00
2023-04-05T07:21:20.325Z,27.47
2023-04-05T07:23:48.690Z,20.67
2023-04-05T07:26:18.161Z,17.63
2023-04-05T07:28:46.378Z,21.73
2023-04-05T07:31:16.538Z,19.17
2023-04-05T07:33:44.673Z,28.70
2023-04-05T07:36:12.782Z,18.90
2023-04-05T07:38:41.869Z,20.37
2023-04-05T07:41:10.008Z,23.03
2023-04-05T07:43:39.484Z,19.23
2023-04-05T07:46:07.734Z,17.90
2023-04-05T07:48:35.826Z,21.77
2023-04-05T07:51:05.696Z,15.93
2023-04-05T07:53:34.092Z,22.20
2023-04-05T07:56:05.230Z,14.10
2023-04-05T07:58:33.466Z,15.10
2023-04-05T08:01:03.733Z,15.43
2023-04-05T08:03:32.610Z,18.63
2023-04-05T08:06:00.955Z,18.40
2023-04-05T08:08:29.179Z,16.70
2023-04-05T08:10:57.366Z,21.93
2023-04-05T08:13:25.707Z,17.00
2023-04-05T08:15:57.307Z,15.10
2023-04-05T08:18:26.863Z,16.53
2023-04-05T08:20:55.899Z,14.07
2023-04-05T08:23:24.384Z,15.80
2023-04-05T08:25:52.604Z,16.80
2023-04-05T08:28:20.838Z,13.33
2023-04-05T08:30:49.338Z,12.63
2023-04-05T08:33:17.464Z,16.30
2023-04-05T08:35:46.969Z,17.57
2023-04-05T08:38:15.181Z,14.80
2023-04-05T08:40:45.296Z,17.40
2023-04-05T08:43:20.517Z,17.67
2023-04-05T08:45:52.426Z,12.60
2023-04-05T08:48:21.657Z,12.90
2023-04-05T08:50:54.732Z,10.53
2023-04-05T08:53:23.363Z,13.27
2023-04-05T08:55:56.945Z,16.50
2023-04-05T08:58:26.583Z,15.70
2023-04-05T09:00:56.762Z,11.10
2023-04-05T09:03:29.453Z,12.40
2023-04-05T09:06:00.917Z,15.70
2023-04-05T09:08:29.108Z,11.80
2023-04-05T09:10:57.166Z,12.57
2023-04-05T09:13:25.316Z,10.80
2023-04-05T09:15:54.172Z,11.27
2023-04-05T09:18:27.051Z,11.83
2023-04-05T09:21:05.082Z,9.30
2023-04-05T09:23:34.831Z,8.90
2023-04-05T09:26:18.542Z,11.77
2023-04-05T09:28:46.749Z,8.83
2023-04-05T09:31:30.875Z,8.70
2023-04-05T09:34:01.102Z,10.83
2023-04-05T09:36:32.917Z,10.37
2023-04-05T09:39:08.247Z,11.73
2023-04-05T09:41:37.528Z,10.33
2023-04-05T09:44:06.134Z,10.00
2023-04-05T09:46:37.368Z,8.93
2023-04-05T09:49:07.096Z,9.80
2023-04-05T09:51:37.884Z,10.67
2023-04-05T09:54:09.791Z,9.73
2023-04-05T09:56:39.896Z,12.80
2023-04-05T09:59:10.719Z,10.80
2023-04-05T10:01:41.648Z,9.70
2023-04-05T10:04:10.395Z,7.90
2023-04-05T10:06:41.286Z,15.90
2023-04-05T10:09:11.390Z,11.63
2023-04-05T10:11:40.119Z,8.27
2023-04-05T10:14:09.606Z,8.13
2023-04-05T10:16:42.784Z,8.77
2023-04-05T10:19:17.868Z,12.20
2023-04-05T10:21:48.985Z,8.87
2023-04-05T10:24:31.565Z,10.53
2023-04-05T10:27:50.552Z,8.87
2023-04-05T10:30:19.287Z,8.30
2023-04-05T10:33:00.808Z,7.37
2023-04-05T10:35:36.330Z,9.60
2023-04-05T10:38:18.568Z,8.90
2023-04-05T10:40:48.791Z,8.57
2023-04-05T10:43:21.849Z,7.47
2023-04-05T10:45:53.799Z,8.50
2023-04-05T10:48:30.264Z,16.50
2023-04-05T10:50:59.548Z,9.67
2023-04-05T10:53:31.462Z,10.60
2023-04-05T10:56:00.038Z,8.57
2023-04-05T10:58:29.864Z,10.30
2023-04-05T11:00:59.549Z,12.83
2023-04-05T11:03:47.471Z,8.87
2023-04-05T11:06:23.655Z,11.43
2023-04-05T11:08:56.752Z,8.23
2023-04-05T11:11:27.569Z,8.93
2023-04-05T11:13:56.920Z,8.47
2023-04-05T11:16:39.206Z,18.60
2023-04-05T11:19:07.751Z,9.20
2023-04-05T11:21:36.017Z,11.97
2023-04-05T11:24:07.753Z,9.53
2023-04-05T11:26:55.304Z,11.13
2023-04-05T11:29:49.579Z,11.10
2023-04-05T11:32:17.835Z,14.10
2023-04-05T11:34:46.384Z,8.33
2023-04-05T11:37:16.830Z,8.30
2023-04-05T11:39:46.239Z,8.37
2023-04-05T11:42:18.298Z,7.43
2023-04-05T11:44:48.549Z,8.77
2023-04-05T11:47:21.339Z,10.60
2023-04-05T11:49:51.584Z,22.83
2023-04-05T11:52:21.213Z,13.73
2023-04-05T11:54:50.792Z,10.80
2023-04-05T11:57:22.833Z,9.57
2023-04-05T11:59:51.587Z,7.83
2023-04-05T12:02:19.891Z,10.03
2023-04-05T12:04:56.368Z,12.67
2023-04-05T12:07:27.724Z,6.70
2023-04-05T12:10:02.892Z,7.80
2023-04-05T12:12:36.079Z,8.70
2023-04-05T12:15:05.208Z,11.50
2023-04-05T12:17:47.481Z,9.73
2023-04-05T12:20:19.303Z,7.57
2023-04-05T12:22:49.483Z,9.20
2023-04-05T12:25:19.888Z,8.77
2023-04-05T12:27:48.561Z,9.17
2023-04-05T12:30:18.159Z,8.63
2023-04-05T12:32:47.950Z,11.37
2023-04-05T12:35:21.418Z,10.40
2023-04-05T12:37:51.537Z,9.53
2023-04-05T12:40:24.845Z,11.63
2023-04-05T12:42:53.191Z,11.40
2023-04-05T12:45:25.065Z,9.20
2023-04-05T12:47:54.824Z,7.50
2023-04-05T12:50:29.690Z,9.90
2023-04-05T12:52:59.685Z,11.87
2023-04-05T12:55:30.784Z,13.23
2023-04-05T12:58:00.934Z,8.70
2023-04-05T13:00:30.946Z,11.03
2023-04-05T13:03:00.781Z,9.13
2023-04-05T13:05:31.259Z,9.10
2023-04-05T13:08:00.020Z,11.10
2023-04-05T13:10:29.609Z,9.07
2023-04-05T13:12:58.140Z,12.67
2023-04-05T13:15:27.210Z,7.53
2023-04-05T13:17:55.474Z,8.83
2023-04-05T13:20:23.766Z,7.60
2023-04-05T13:22:51.960Z,10.40
2023-04-05T13:25:20.341Z,9.10
2023-04-05T13:27:50.091Z,10.47
2023-04-05T13:30:18.876Z,9.03
2023-04-05T13:32:47.038Z,10.53
2023-04-05T13:35:15.311Z,10.40
2023-04-05T13:37:43.436Z,7.70
2023-04-05T13:40:12.079Z,9.10
2023-04-05T13:42:40.292Z,7.13
2023-04-05T13:45:12.024Z,12.20
2023-04-05T13:47:40.135Z,10.00
2023-04-05T13:50:09.310Z,8.27
2023-04-05T13:52:37.634Z,8.43
2023-04-05T13:55:06.504Z,8.63
2023-04-05T13:57:34.568Z,11.07
2023-04-05T14:00:02.891Z,8.37
2023-04-05T14:02:41.645Z,9.00
2023-04-05T14:05:10.523Z,8.70
2023-04-05T14:07:38.973Z,8.63
2023-04-05T14:10:07.687Z,9.87
2023-04-05T14:12:35.903Z,12.10
2023-04-05T14:15:04.304Z,9.40
2023-04-05T14:17:32.469Z,9.50
2023-04-05T14:20:02.080Z,10.23
2023-04-05T14:22:30.395Z,7.77
2023-04-05T14:24:58.627Z,9.50
2023-04-05T14:27:28.467Z,9.20
2023-04-05T14:29:57.385Z,8.53
2023-04-05T14:32:25.861Z,9.63
2023-04-05T14:34:54.342Z,7.03
2023-04-05T14:37:23.927Z,8.10
2023-04-05T14:39:52.158Z,11.53
2023-04-05T14:42:21.623Z,10.20
2023-04-05T14:44:49.791Z,6.77
2023-04-05T14:47:17.989Z,12.70
2023-04-05T14:49:46.186Z,10.40
2023-04-05T14:52:14.470Z,10.10
2023-04-05T14:54:45.262Z,9.27
2023-04-05T14:57:13.520Z,6.47
2023-04-05T14:59:43.332Z,6.97
2023-04-05T15:02:11.616Z,9.50
2023-04-05T15:04:41.257Z,8.10
2023-04-05T15:07:09.543Z,8.10
2023-04-05T15:09:37.957Z,10.63
2023-04-05T15:12:07.908Z,8.20
2023-04-05T15:14:36.097Z,13.43
2023-04-05T15:17:04.404Z,9.00
2023-04-05T15:19:32.850Z,8.90
2023-04-05T15:22:01.215Z,7.70
2023-04-05T15:24:29.549Z,8.90
2023-04-05T15:27:02.019Z,7.73
2023-04-05T15:29:32.257Z,7.67
2023-04-05T15:32:00.947Z,10.80
2023-04-05T15:34:30.068Z,9.93
2023-04-05T15:36:58.515Z,8.30
2023-04-05T15:39:27.069Z,13.43
2023-04-05T15:41:57.771Z,9.83
2023-04-05T15:44:26.769Z,10.40
2023-04-05T15:46:56.404Z,8.53
2023-04-05T15:49:24.586Z,10.23
2023-04-05T15:51:52.862Z,6.87
2023-04-05T15:54:21.134Z,11.67
2023-04-05T15:56:49.450Z,8.27
2023-04-05T15:59:17.736Z,11.47
2023-04-05T16:01:46.044Z,9.07
2023-04-05T16:04:15.968Z,9.30
2023-04-05T16:06:44.285Z,7.70
2023-04-05T16:09:12.830Z,9.30
2023-04-05T16:11:41.193Z,9.57
2023-04-05T16:14:11.327Z,11.53
2023-04-05T16:16:50.490Z,6.47
2023-04-05T16:19:23.513Z,8.83
2023-04-05T16:21:52.670Z,9.70
2023-04-05T16:24:21.233Z,13.57
2023-04-05T16:26:49.630Z,6.43
2023-04-05T16:29:17.820Z,7.43
2023-04-05T16:31:47.512Z,9.97
2023-04-05T16:34:16.044Z,7.93
2023-04-05T16:36:45.713Z,5.80
2023-04-05T16:39:13.894Z,8.40
2023-04-05T16:41:42.197Z,9.13
2023-04-05T16:44:11.173Z,8.30
2023-04-05T16:46:39.964Z,9.90
2023-04-05T16:49:08.258Z,9.47
2023-04-05T16:51:37.354Z,8.27
2023-04-05T16:54:07.061Z,7.17
2023-04-05T16:56:35.343Z,11.30
2023-04-05T16:59:06.730Z,6.30
2023-04-05T17:01:35.944Z,14.00
2023-04-05T17:04:04.213Z,8.53
2023-04-05T17:06:32.528Z,7.80
2023-04-05T17:09:00.847Z,7.63
2023-04-05T17:11:30.813Z,6.57
2023-04-05T17:13:59.547Z,10.90
2023-04-05T17:16:27.924Z,8.70
2023-04-05T17:18:56.407Z,10.37
2023-04-05T17:21:25.788Z,9.60
2023-04-05T17:23:54.091Z,7.50
2023-04-05T17:26:23.177Z,5.53
2023-04-05T17:28:52.744Z,8.13
2023-04-05T17:31:20.968Z,7.07
2023-04-05T17:33:49.549Z,7.03
2023-04-05T17:36:18.413Z,5.67
2023-04-05T17:38:46.818Z,16.83
2023-04-05T17:41:15.049Z,11.53
2023-04-05T17:43:43.434Z,7.70
2023-04-05T17:46:14.858Z,7.53
2023-04-05T17:48:43.346Z,6.93
2023-04-05T17:51:11.615Z,7.03
2023-04-05T17:53:39.858Z,9.13
2023-04-05T17:56:08.157Z,8.27
2023-04-05T17:58:36.322Z,9.27
2023-04-05T18:01:05.101Z,5.27
2023-04-05T18:03:35.161Z,8.23
2023-04-05T18:06:03.440Z,11.40
2023-04-05T18:08:31.637Z,10.43
2023-04-05T18:11:00.699Z,8.00
2023-04-05T18:13:29.521Z,7.73
2023-04-05T18:15:59.240Z,9.00
2023-04-05T18:18:28.648Z,6.20
2023-04-05T18:21:01.835Z,6.77
2023-04-05T18:23:30.361Z,7.40
2023-04-05T18:25:58.996Z,5.90
2023-04-05T18:28:27.272Z,9.67
2023-04-05T18:30:55.510Z,8.40
2023-04-05T18:33:23.714Z,9.63
2023-04-05T18:35:52.148Z,5.70
2023-04-05T18:38:21.923Z,5.93
2023-04-05T18:40:50.242Z,7.50
2023-04-05T18:43:18.418Z,7.90
2023-04-05T18:45:46.757Z,9.30
2023-04-05T18:48:15.500Z,9.80
2023-04-05T18:50:43.686Z,6.40
2023-04-05T18:53:11.874Z,5.67
2023-04-05T18:55:41.455Z,6.27
2023-04-05T18:58:09.665Z,5.30
2023-04-05T19:00:38.004Z,8.37
2023-04-05T19:03:06.292Z,8.80
2023-04-05T19:05:34.545Z,6.73
2023-04-05T19:08:02.864Z,10.40
2023-04-05T19:10:32.142Z,6.80
2023-04-05T19:13:01.823Z,10.50
2023-04-05T19:15:30.576Z,7.50
2023-04-05T19:18:00.842Z,6.70
2023-04-05T19:20:29.164Z,9.80
2023-04-05T19:22:57.492Z,5.70
2023-04-05T19:25:26.434Z,10.87
2023-04-05T19:27:55.093Z,7.53
2023-04-05T19:30:24.819Z,7.90
2023-04-05T19:32:54.645Z,7.70
2023-04-05T19:35:22.981Z,9.10
2023-04-05T19:37:51.230Z,6.20
2023-04-05T19:40:19.762Z,9.57
2023-04-05T19:42:48.312Z,8.23
2023-04-05T19:45:24.789Z,8.27
2023-04-05T19:47:55.391Z,8.70
2023-04-05T19:50:47.251Z,10.43
2023-04-05T19:53:39.577Z,11.57
2023-04-05T19:56:15.065Z,13.90
2023-04-05T19:58:43.519Z,16.20
2023-04-05T20:01:11.748Z,16.10
2023-04-05T20:03:42.810Z,13.60
2023-04-05T20:06:11.975Z,15.10
2023-04-05T20:08:41.806Z,10.77
2023-04-05T20:11:12.507Z,11.93
2023-04-05T20:13:43.503Z,14.57
2023-04-05T20:16:13.324Z,13.47
2023-04-05T20:18:46.483Z,16.93
2023-04-05T20:21:15.414Z,11.20
2023-04-05T20:23:44.812Z,9.80
2023-04-05T20:26:16.064Z,8.63
2023-04-05T20:28:50.204Z,7.50
2023-04-05T20:31:21.113Z,5.67
2023-04-05T20:33:54.005Z,7.40
2023-04-05T20:36:23.734Z,5.03
2023-04-05T20:38:52.268Z,6.90
2023-04-05T20:41:21.140Z,4.23
2023-04-05T20:43:49.517Z,6.33
2023-04-05T20:46:17.855Z,3.90
2023-04-05T20:48:46.840Z,6.07
2023-04-05T20:51:17.394Z,5.60
2023-04-05T20:53:45.682Z,7.20
2023-04-05T20:56:13.959Z,7.43
2023-04-05T20:58:42.657Z,7.50
2023-04-05T21:01:11.609Z,9.97
2023-04-05T21:03:41.731Z,9.10
2023-04-05T21:06:11.221Z,5.10
2023-04-05T21:08:41.622Z,6.80
2023-04-05T21:11:11.715Z,5.20
2023-04-05T21:13:41.428Z,4.00
2023-04-05T21:16:09.992Z,5.30
2023-04-05T21:18:38.201Z,4.00
2023-04-05T21:21:06.776Z,4.50
2023-04-05T21:23:35.212Z,5.47
2023-04-05T21:26:06.068Z,5.67
2023-04-05T21:28:34.464Z,6.33
2023-04-05T21:31:02.682Z,7.37
2023-04-05T21:33:31.083Z,7.57
2023-04-05T21:35:59.495Z,10.30
2023-04-05T21:38:27.687Z,13.63
2023-04-05T21:40:56.417Z,8.87
2023-04-05T21:43:26.046Z,7.33
2023-04-05T21:45:54.254Z,11.23
2023-04-05T21:48:24.680Z,11.40
2023-04-05T21:50:53.347Z,7.50
2023-04-05T21:53:24.096Z,10.20
2023-04-05T21:55:52.567Z,5.60
2023-04-05T21:58:20.878Z,6.83
2023-04-05T22:00:50.452Z,5.83
2023-04-05T22:03:18.743Z,5.60
2023-04-05T22:05:47.067Z,5.10
2023-04-05T22:08:15.276Z,5.30
2023-04-05T22:10:44.299Z,5.70
2023-04-05T22:13:12.599Z,6.07
2023-04-05T22:15:40.719Z,7.73
2023-04-05T22:18:10.585Z,7.53
2023-04-05T22:20:38.926Z,6.57
2023-04-05T22:23:07.226Z,3.73
2023-04-05T22:25:35.546Z,3.50
2023-04-05T22:28:03.807Z,8.00
2023-04-05T22:30:42.892Z,3.97
2023-04-05T22:33:13.857Z,6.43
2023-04-05T22:35:42.730Z,3.57
2023-04-05T22:38:11.001Z,4.80
2023-04-05T22:40:39.426Z,5.93
2023-04-05T22:43:07.678Z,3.80
2023-04-05T22:45:35.954Z,3.70
2023-04-05T22:48:04.249Z,6.03
2023-04-05T22:50:34.017Z,4.23
2023-04-05T22:53:02.227Z,7.63
2023-04-05T22:55:30.680Z,6.17
2023-04-05T22:57:58.938Z,11.00
2023-04-05T23:00:27.174Z,8.43
2023-04-05T23:02:55.496Z,7.50
2023-04-05T23:05:23.693Z,6.80
2023-04-05T23:07:53.505Z,5.60
2023-04-05T23:10:21.889Z,5.40
2023-04-05T23:12:50.091Z,8.70
2023-04-05T23:15:20.652Z,8.13
2023-04-05T23:17:49.738Z,15.77
2023-04-05T23:20:18.038Z,12.53
2023-04-05T23:22:46.171Z,9.10
2023-04-05T23:25:15.811Z,5.70
2023-04-05T23:27:44.039Z,7.83
2023-04-05T23:30:13.148Z,4.97
2023-04-05T23:32:41.406Z,4.63
2023-04-05T23:35:10.500Z,5.10
2023-04-05T23:37:38.712Z,4.40
2023-04-05T23:40:08.342Z,5.60
2023-04-05T23:42:37.935Z,4.90
2023-04-05T23:45:09.012Z,6.23
2023-04-05T23:47:38.547Z,4.20
2023-04-05T23:50:08.163Z,3.50
2023-04-05T23:52:36.397Z,6.50
2023-04-05T23:55:05.224Z,6.20
2023-04-05T23:57:33.530Z,3.60
